Time;durP1;ratioP1;P1;durP2;ratioP2;P2;SDS_P1;SDS_P2;PMS_P1;PMS_P2;Temp;Humidity;BMP_temperature;BMP_pressure;BME280_temperature;BME280_humidity;BME280_pressure;Samples;Min_cycle;Max_cycle;Signal;HPM_P1;HPM_P2
2022/11/01 00:02:08;;;;;;;;;;;;;;;10.30;90.94;98113.99;107646;1268;69202;-70
2022/11/01 00:04:37;;;;;;;;;;;;;;;10.29;91.65;98115.06;107671;1271;68305;-70
2022/11/01 00:07:07;;;;;;;;;;;;;;;10.29;91.03;98115.58;107677;1269;59703;-72
2022/11/01 00:09:36;;;;;;;;;;;;;;;10.29;90.53;98112.84;107695;1270;59735;-70
2022/11/01 00:12:06;;;;;;;;;;;;;;;10.27;90.41;98115.18;107687;1269;71345;-72
2022/11/01 00:14:36;;;;;;;;;;;;;;;10.26;91.32;98114.04;107662;1268;67601;-71
2022/11/01 00:17:05;;;;;;;;;;;;;;;10.26;91.54;98115.11;107670;1268;68322;-71
2022/11/01 00:19:35;;;;;;;;;;;;;;;10.26;91.11;98112.66;107670;1271;59770;-71
2022/11/01 00:22:04;;;;;;;;;;;;;;;10.25;90.93;98115.16;107698;1266;59689;-71
2022/11/01 00:24:34;;;;;;;;;;;;;;;10.25;91.31;98113.39;107693;1269;71348;-70
2022/11/01 00:27:04;;;;;;;;;;;;;;;10.24;91.58;98111.17;107637;1268;69209;-70
2022/11/01 00:29:33;;;;;;;;;;;;;;;10.24;91.71;98112.75;107662;1270;69319;-70
2022/11/01 00:32:03;;;;;;;;;;;;;;;10.24;90.97;98111.21;107698;1269;59808;-70
2022/11/01 00:34:31;;;;;;;;;;;;;;;10.23;91.46;98113.71;107668;1271;59767;-72
2022/11/01 00:37:02;;;;;;;;;;;;;;;10.21;91.43;98110.14;107680;1270;71418;-70
2022/11/01 00:39:31;;;;;;;;;;;;;;;10.20;91.24;98109.45;107680;1268;69966;-70
2022/11/01 00:42:01;;;;;;;;;;;;;;;10.19;91.27;98103.42;107625;1269;69726;-70
2022/11/01 00:44:30;;;;;;;;;;;;;;;10.17;91.50;98104.41;107642;1270;60058;-70
2022/11/01 00:47:00;;;;;;;;;;;;;;;10.15;92.04;98101.08;107661;1268;59727;-70
2022/11/01 00:49:31;;;;;;;;;;;;;;;10.12;91.73;98098.64;107649;1270;70850;-70
2022/11/01 00:52:03;;;;;;;;;;;;;;;10.11;91.65;98092.58;107649;1268;69623;-70
2022/11/01 00:54:33;;;;;;;;;;;;;;;10.11;91.88;98089.46;107624;1268;69655;-70
2022/11/01 00:57:02;;;;;;;;;;;;;;;10.10;92.46;98089.33;107626;1269;59674;-70
2022/11/01 00:59:31;;;;;;;;;;;;;;;10.11;91.90;98088.45;107661;1269;59653;-70
2022/11/01 01:02:01;;;;;;;;;;;;;;;10.11;91.17;98089.09;107679;1265;71397;-71
2022/11/01 01:04:31;;;;;;;;;;;;;;;10.11;91.34;98089.84;107713;1269;67891;-70
2022/11/01 01:07:02;;;;;;;;;;;;;;;10.09;92.58;98092.38;107680;1268;68607;-71
2022/11/01 01:09:31;;;;;;;;;;;;;;;10.06;92.94;98089.80;107656;1270;59713;-70
2022/11/01 01:12:01;;;;;;;;;;;;;;;10.04;92.46;98088.88;107644;1266;59789;-70
2022/11/01 01:14:30;;;;;;;;;;;;;;;10.03;92.30;98090.66;107682;1268;71518;-70
2022/11/01 01:17:00;;;;;;;;;;;;;;;10.03;91.87;98089.28;107649;1269;68253;-71
2022/11/01 01:19:30;;;;;;;;;;;;;;;10.02;91.97;98091.77;107651;1270;69608;-70
2022/11/01 01:22:01;;;;;;;;;;;;;;;10.00;92.22;98089.46;107639;1269;59776;-70
2022/11/01 01:24:31;;;;;;;;;;;;;;;10.00;92.43;98088.08;107639;1270;59738;-70
2022/11/01 01:27:02;;;;;;;;;;;;;;;10.00;93.21;98085.42;107664;1267;71793;-70
2022/11/01 01:29:33;;;;;;;;;;;;;;;10.00;93.31;98085.41;107666;1270;69227;-70
2022/11/01 01:32:03;;;;;;;;;;;;;;;10.00;92.09;98085.77;107620;1268;69875;-70
2022/11/01 01:34:32;;;;;;;;;;;;;;;10.00;91.83;98084.05;107617;1269;59768;-70
2022/11/01 01:37:01;;;;;;;;;;;;;;;9.99;91.77;98083.98;107658;1265;59703;-70
2022/11/01 01:39:31;;;;;;;;;;;;;;;9.96;92.12;98085.98;107657;1266;71287;-70
2022/11/01 01:42:21;;;;;;;;;;;;;;;9.95;92.05;98082.77;107692;1268;68350;-71
2022/11/01 01:44:56;;;;;;;;;;;;;;;9.96;92.19;98083.95;107559;1270;69960;-70
2022/11/01 01:47:27;;;;;;;;;;;;;;;9.92;92.40;98085.06;107659;1270;59787;-70
2022/11/01 01:50:06;;;;;;;;;;;;;;;9.89;92.67;98083.98;107638;1269;59662;-70
2022/11/01 01:52:41;;;;;;;;;;;;;;;9.87;93.24;98083.41;107642;1269;70462;-70
2022/11/01 01:55:12;;;;;;;;;;;;;;;9.87;93.65;98080.65;107675;1268;68673;-70
2022/11/01 01:57:43;;;;;;;;;;;;;;;9.86;93.12;98082.41;107667;1269;68487;-70
2022/11/01 02:00:13;;;;;;;;;;;;;;;9.86;93.92;98083.32;107609;1264;59684;-71
2022/11/01 02:02:44;;;;;;;;;;;;;;;9.85;93.41;98081.63;107681;1269;59661;-71
2022/11/01 02:05:18;;;;;;;;;;;;;;;9.83;93.24;98083.62;107630;1266;71197;-72
2022/11/01 02:07:48;;;;;;;;;;;;;;;9.83;93.78;98085.42;107645;1270;69688;-72
2022/11/01 02:10:17;;;;;;;;;;;;;;;9.83;93.89;98085.25;107663;1269;69944;-72
2022/11/01 02:12:48;;;;;;;;;;;;;;;9.83;94.04;98085.60;107673;1270;59735;-71
2022/11/01 02:15:22;;;;;;;;;;;;;;;9.83;93.98;98085.42;107624;1269;59706;-71
2022/11/01 02:18:06;;;;;;;;;;;;;;;9.84;93.76;98082.92;107676;1269;71669;-71
2022/11/01 02:20:38;;;;;;;;;;;;;;;9.84;94.02;98084.84;107636;1269;69291;-71
2022/11/01 02:23:27;;;;;;;;;;;;;;;9.84;93.85;98086.04;107653;1268;69747;-72
2022/11/01 02:26:18;;;;;;;;;;;;;;;9.83;93.82;98081.74;107643;1269;59706;-71
2022/11/01 02:29:01;;;;;;;;;;;;;;;9.83;93.41;98080.00;107648;1270;59780;-71
2022/11/01 02:31:40;;;;;;;;;;;;;;;9.83;93.42;98081.05;107657;1269;71397;-70
2022/11/01 02:34:27;;;;;;;;;;;;;;;9.82;93.27;98077.80;107664;1270;68240;-70
2022/11/01 02:37:19;;;;;;;;;;;;;;;9.83;93.39;98085.23;107656;1269;69082;-70
2022/11/01 02:39:52;;;;;;;;;;;;;;;9.84;93.96;98079.06;107673;1266;59771;-71
2022/11/01 02:42:34;;;;;;;;;;;;;;;9.84;94.18;98083.23;107662;1270;59647;-70
2022/11/01 02:45:09;;;;;;;;;;;;;;;9.85;93.79;98085.62;107688;1268;71284;-70
2022/11/01 02:47:39;;;;;;;;;;;;;;;9.86;94.28;98088.38;107652;1269;68418;-71
2022/11/01 02:50:10;;;;;;;;;;;;;;;9.86;94.46;98088.38;107652;1269;69188;-70
2022/11/01 02:52:40;;;;;;;;;;;;;;;9.86;93.26;98088.86;107644;1270;59693;-71
2022/11/01 02:55:28;;;;;;;;;;;;;;;9.84;95.07;98091.45;107626;1271;59740;-70
2022/11/01 02:58:04;;;;;;;;;;;;;;;9.82;96.72;98094.86;107653;1266;71416;-70
2022/11/01 03:00:36;;;;;;;;;;;;;;;9.81;96.05;98094.55;107688;1266;69239;-70
2022/11/01 03:03:08;;;;;;;;;;;;;;;9.80;96.42;98091.66;107652;1268;68169;-70
2022/11/01 03:05:39;;;;;;;;;;;;;;;9.81;96.91;98092.68;107658;1267;59787;-70
2022/11/01 03:08:11;;;;;;;;;;;;;;;9.81;96.95;98091.10;107685;1269;59716;-70
2022/11/01 03:10:41;;;;;;;;;;;;;;;9.83;96.31;98087.17;107655;1267;71421;-70
2022/11/01 03:13:18;;;;;;;;;;;;;;;9.83;95.37;98088.73;107650;1270;69795;-70
2022/11/01 03:15:56;;;;;;;;;;;;;;;9.81;94.96;98091.08;107645;1270;68366;-70
2022/11/01 03:18:32;;;;;;;;;;;;;;;9.80;94.59;98094.63;107689;1268;59687;-70
2022/11/01 03:21:22;;;;;;;;;;;;;;;9.79;94.40;98096.78;107643;1267;59772;-70
2022/11/01 03:24:01;;;;;;;;;;;;;;;9.76;94.93;98098.50;107690;1266;70837;-70
2022/11/01 03:26:32;;;;;;;;;;;;;;;9.73;95.06;98097.31;107645;1268;68267;-70
2022/11/01 03:29:05;;;;;;;;;;;;;;;9.70;95.29;98100.40;107642;1270;69334;-70
2022/11/01 03:31:36;;;;;;;;;;;;;;;9.69;95.79;98102.93;107628;1268;59730;-70
2022/11/01 03:34:14;;;;;;;;;;;;;;;9.66;95.42;98105.55;107649;1269;59702;-70
2022/11/01 03:36:47;;;;;;;;;;;;;;;9.64;95.81;98104.80;107685;1269;70623;-70
2022/11/01 03:39:21;;;;;;;;;;;;;;;9.64;95.44;98107.02;107656;1270;69200;-70
2022/11/01 03:41:51;;;;;;;;;;;;;;;9.63;95.20;98103.09;107626;1270;69171;-70
2022/11/01 03:44:20;;;;;;;;;;;;;;;9.61;95.57;98101.27;107577;1268;59734;-71
2022/11/01 03:46:50;;;;;;;;;;;;;;;9.59;95.67;98106.45;107665;1270;59690;-70
2022/11/01 03:49:20;;;;;;;;;;;;;;;9.57;95.58;98102.57;107640;1270;70472;-70
2022/11/01 03:51:49;;;;;;;;;;;;;;;9.56;95.72;98105.95;107657;1274;68522;-70
2022/11/01 03:54:19;;;;;;;;;;;;;;;9.53;95.76;98102.97;107643;1259;68560;-70
2022/11/01 03:56:49;;;;;;;;;;;;;;;9.53;95.65;98105.11;107647;1268;59724;-71
2022/11/01 03:59:18;;;;;;;;;;;;;;;9.52;96.11;98107.42;107684;1266;59670;-71
2022/11/01 04:01:48;;;;;;;;;;;;;;;9.51;96.15;98104.87;107715;1270;70642;-71
2022/11/01 04:04:17;;;;;;;;;;;;;;;9.47;96.14;98107.87;107680;1270;69246;-71
2022/11/01 04:06:46;;;;;;;;;;;;;;;9.46;96.09;98107.58;107661;1268;68968;-71
2022/11/01 04:09:16;;;;;;;;;;;;;;;9.45;96.24;98108.49;107686;1270;59813;-71
2022/11/01 04:11:45;;;;;;;;;;;;;;;9.45;95.90;98102.77;107689;1266;59699;-71
2022/11/01 04:22:39;;;;;;;;;;;;;;;9.40;96.06;98096.08;107677;1268;59735;-71
2022/11/01 04:25:10;;;;;;;;;;;;;;;9.39;96.87;98097.02;107575;1266;59708;-70
2022/11/01 04:27:39;;;;;;;;;;;;;;;9.38;98.13;98097.59;107618;1270;71388;-72
2022/11/01 04:30:08;;;;;;;;;;;;;;;9.38;98.44;98096.54;107671;1268;69140;-70
2022/11/01 04:32:37;;;;;;;;;;;;;;;9.40;98.89;98098.19;107675;1266;69414;-70
2022/11/01 04:35:06;;;;;;;;;;;;;;;9.42;99.08;98099.11;107626;1268;60084;-70
2022/11/01 04:37:40;;;;;;;;;;;;;;;9.44;99.09;98102.13;107659;1269;59741;-71
2022/11/01 04:40:11;;;;;;;;;;;;;;;9.45;99.11;98098.08;107667;1268;71470;-71
2022/11/01 04:42:40;;;;;;;;;;;;;;;9.46;98.26;98099.73;107661;1268;69482;-71
2022/11/01 04:45:10;;;;;;;;;;;;;;;9.46;97.41;98095.36;107645;1270;69748;-71
2022/11/01 04:47:38;;;;;;;;;;;;;;;9.47;97.05;98093.45;107637;1270;59673;-71
2022/11/01 04:50:07;;;;;;;;;;;;;;;9.46;97.00;98092.25;107676;1268;59791;-71
2022/11/01 04:52:36;;;;;;;;;;;;;;;9.46;96.61;98092.75;107669;1269;71482;-73
2022/11/01 04:55:05;;;;;;;;;;;;;;;9.46;96.57;98091.23;107647;1268;68862;-71
2022/11/01 04:57:38;;;;;;;;;;;;;;;9.45;96.54;98091.60;107582;1269;69288;-71
2022/11/01 05:00:10;;;;;;;;;;;;;;;9.43;97.26;98093.27;107668;1268;59834;-71
2022/11/01 05:02:39;;;;;;;;;;;;;;;9.42;97.16;98091.45;107673;1270;59712;-71
2022/11/01 05:05:09;;;;;;;;;;;;;;;9.40;97.46;98092.95;107686;1268;70400;-71
2022/11/01 05:07:38;;;;;;;;;;;;;;;9.40;96.44;98089.63;107628;1269;69676;-71
2022/11/01 05:10:08;;;;;;;;;;;;;;;9.40;96.32;98089.45;107682;1269;69284;-71
2022/11/01 05:12:37;;;;;;;;;;;;;;;9.41;96.67;98089.39;107669;1268;59751;-71
2022/11/01 05:15:06;;;;;;;;;;;;;;;9.42;96.71;98085.36;107666;1268;59724;-71
2022/11/01 05:17:35;;;;;;;;;;;;;;;9.43;96.39;98089.82;107687;1264;72408;-71
2022/11/01 05:20:04;;;;;;;;;;;;;;;9.43;96.65;98094.52;107755;1268;69829;-71
2022/11/01 05:22:32;;;;;;;;;;;;;;;9.44;96.61;98093.41;107633;1264;68315;-70
2022/11/01 05:25:01;;;;;;;;;;;;;;;9.43;97.02;98095.38;107573;1270;59703;-71
2022/11/01 05:27:29;;;;;;;;;;;;;;;9.45;96.75;98099.83;107627;1268;59766;-70
2022/11/01 05:29:58;;;;;;;;;;;;;;;9.46;97.54;98097.64;107653;1269;71467;-71
2022/11/01 05:32:26;;;;;;;;;;;;;;;9.48;98.66;98099.79;107627;1266;69280;-71
2022/11/01 05:34:55;;;;;;;;;;;;;;;9.50;97.89;98100.20;107663;1270;69877;-71
2022/11/01 05:37:25;;;;;;;;;;;;;;;9.52;97.22;98099.40;107675;1266;60108;-71
2022/11/01 05:39:55;;;;;;;;;;;;;;;9.53;96.92;98097.23;107681;1266;59764;-71
2022/11/01 05:42:23;;;;;;;;;;;;;;;9.55;96.53;98099.41;107641;1268;71359;-71
2022/11/01 05:44:53;;;;;;;;;;;;;;;9.54;96.34;98097.52;107633;1268;68761;-71
2022/11/01 05:47:21;;;;;;;;;;;;;;;9.52;97.14;98101.48;107626;1268;70244;-71
2022/11/01 05:49:50;;;;;;;;;;;;;;;9.50;97.21;98100.39;107613;1266;59821;-71
2022/11/01 05:52:19;;;;;;;;;;;;;;;9.48;96.96;98100.69;107682;1266;59768;-71
2022/11/01 05:54:47;;;;;;;;;;;;;;;9.44;97.38;98104.70;107622;1268;70545;-72
2022/11/01 05:57:16;;;;;;;;;;;;;;;9.44;97.53;98111.68;107639;1266;68461;-71
2022/11/01 05:59:44;;;;;;;;;;;;;;;9.44;97.32;98111.52;107662;1268;69797;-71
2022/11/01 06:02:13;;;;;;;;;;;;;;;9.42;97.83;98113.54;107650;1269;59783;-72
2022/11/01 06:04:42;;;;;;;;;;;;;;;9.42;98.00;98116.64;107656;1268;59741;-72
2022/11/01 06:07:11;;;;;;;;;;;;;;;9.42;98.35;98116.83;107674;1268;71421;-71
2022/11/01 06:09:39;;;;;;;;;;;;;;;9.44;98.10;98117.41;107654;1269;69668;-71
2022/11/01 06:12:08;;;;;;;;;;;;;;;9.47;98.02;98121.25;107655;1268;68854;-71
2022/11/01 06:14:37;;;;;;;;;;;;;;;9.48;97.81;98120.68;107655;1267;59798;-71
2022/11/01 06:17:07;;;;;;;;;;;;;;;9.49;97.77;98122.40;107615;1269;59673;-71
2022/11/01 06:19:35;;;;;;;;;;;;;;;9.49;97.66;98122.52;107627;1268;71400;-71
2022/11/01 06:22:05;;;;;;;;;;;;;;;9.51;98.06;98127.45;107655;1269;69738;-71
2022/11/01 06:24:33;;;;;;;;;;;;;;;9.55;98.52;98131.08;107621;1268;69519;-71
2022/11/01 06:27:01;;;;;;;;;;;;;;;9.56;98.57;98134.66;107623;1268;59775;-71
2022/11/01 06:29:31;;;;;;;;;;;;;;;9.56;98.61;98135.87;107662;1266;59701;-71
2022/11/01 06:32:01;;;;;;;;;;;;;;;9.58;97.95;98132.78;107650;1268;71746;-71
2022/11/01 06:34:30;;;;;;;;;;;;;;;9.61;97.50;98137.34;107613;1266;69875;-71
2022/11/01 06:36:59;;;;;;;;;;;;;;;9.64;97.14;98139.93;107595;1266;69640;-71
2022/11/01 06:39:27;;;;;;;;;;;;;;;9.64;97.12;98132.09;107655;1265;59725;-71
2022/11/01 06:41:57;;;;;;;;;;;;;;;9.65;97.19;98133.23;107646;1269;59769;-71
2022/11/01 06:44:26;;;;;;;;;;;;;;;9.66;97.34;98134.27;107645;1261;71659;-71
2022/11/01 06:46:54;;;;;;;;;;;;;;;9.67;97.63;98133.53;107636;1268;68261;-71
2022/11/01 06:49:23;;;;;;;;;;;;;;;9.68;97.91;98132.36;107675;1267;70015;-71
2022/11/01 06:51:51;;;;;;;;;;;;;;;9.71;97.72;98132.77;107604;1266;59752;-71
2022/11/01 06:54:20;;;;;;;;;;;;;;;9.72;97.38;98134.61;107663;1264;60121;-71
2022/11/01 06:56:49;;;;;;;;;;;;;;;9.72;97.10;98133.77;107654;1268;72066;-71
2022/11/01 06:59:18;;;;;;;;;;;;;;;9.72;97.01;98136.52;107691;1268;69238;-72
2022/11/01 07:01:46;;;;;;;;;;;;;;;9.72;97.78;98134.45;107733;1269;69451;-72
2022/11/01 07:04:15;;;;;;;;;;;;;;;9.73;98.22;98140.67;107717;1268;59727;-71
2022/11/01 07:06:44;;;;;;;;;;;;;;;9.75;97.75;98143.83;107692;1270;59694;-71
2022/11/01 07:09:13;;;;;;;;;;;;;;;9.77;97.13;98144.59;107772;1266;70794;-71
2022/11/01 07:11:41;;;;;;;;;;;;;;;9.77;97.36;98148.60;107693;1267;69305;-70
2022/11/01 07:14:10;;;;;;;;;;;;;;;9.79;98.21;98147.45;107630;1266;68532;-70
2022/11/01 07:16:39;;;;;;;;;;;;;;;9.81;98.12;98148.52;107662;1270;59768;-70
2022/11/01 07:19:07;;;;;;;;;;;;;;;9.87;98.09;98145.95;107576;1270;59721;-71
2022/11/01 07:21:38;;;;;;;;;;;;;;;9.91;97.74;98143.92;107563;1268;71947;-71
2022/11/01 07:24:07;;;;;;;;;;;;;;;9.98;97.82;98141.48;107705;1268;68900;-70
2022/11/01 07:26:35;;;;;;;;;;;;;;;10.02;97.07;98137.20;107301;1269;404512;-71
2022/11/01 07:29:04;;;;;;;;;;;;;;;10.07;97.00;98139.87;107676;1264;59690;-71
2022/11/01 07:31:33;;;;;;;;;;;;;;;10.09;96.78;98140.80;107630;1269;59684;-72
2022/11/01 07:34:02;;;;;;;;;;;;;;;10.11;96.46;98135.63;107693;1264;71973;-72
2022/11/01 07:36:34;;;;;;;;;;;;;;;10.14;96.22;98136.67;107622;1270;69501;-71
2022/11/01 07:39:03;;;;;;;;;;;;;;;10.16;96.05;98135.70;107655;1269;67513;-72
2022/11/01 07:41:31;;;;;;;;;;;;;;;10.17;95.95;98135.46;107595;1266;59631;-71
2022/11/01 07:44:01;;;;;;;;;;;;;;;10.16;96.47;98138.44;107661;1268;59696;-71
2022/11/01 07:46:30;;;;;;;;;;;;;;;10.19;96.86;98135.34;107643;1266;70938;-71
2022/11/01 07:48:59;;;;;;;;;;;;;;;10.23;96.77;98133.38;107667;1264;69205;-72
2022/11/01 07:51:28;;;;;;;;;;;;;;;10.28;96.40;98128.89;107644;1268;69251;-71
2022/11/01 07:53:57;;;;;;;;;;;;;;;10.33;95.71;98127.89;107684;1268;59781;-70
2022/11/01 07:56:25;;;;;;;;;;;;;;;10.34;95.35;98127.46;107658;1268;60036;-71
2022/11/01 07:58:54;;;;;;;;;;;;;;;10.33;95.26;98130.16;107618;1266;71738;-71
2022/11/01 08:01:23;;;;;;;;;;;;;;;10.30;95.21;98130.52;107627;1266;69967;-71
2022/11/01 08:03:52;;;;;;;;;;;;;;;10.24;95.53;98132.83;107635;1268;68498;-71
2022/11/01 08:06:21;;;;;;;;;;;;;;;10.27;95.67;98130.37;107617;1268;59759;-71
2022/11/01 08:08:55;;;;;;;;;;;;;;;10.33;95.47;98127.18;107627;1268;59689;-72
2022/11/01 08:11:23;;;;;;;;;;;;;;;10.39;95.12;98132.75;107643;1268;70662;-72
2022/11/01 08:13:54;;;;;;;;;;;;;;;10.46;95.04;98126.56;107625;1269;68841;-72
2022/11/01 08:16:32;;;;;;;;;;;;;;;10.53;94.67;98119.92;107627;1268;69342;-72
2022/11/01 08:19:01;;;;;;;;;;;;;;;10.56;94.42;98113.80;107651;1266;59821;-72
2022/11/01 08:21:29;;;;;;;;;;;;;;;10.59;94.23;98117.21;107643;1269;59699;-72
2022/11/01 08:23:57;;;;;;;;;;;;;;;10.63;94.19;98117.17;107608;1266;71659;-72
2022/11/01 08:26:26;;;;;;;;;;;;;;;10.65;93.92;98120.17;107593;1268;69524;-72
2022/11/01 08:28:54;;;;;;;;;;;;;;;10.65;93.90;98117.57;107673;1261;68497;-72
2022/11/01 08:31:23;;;;;;;;;;;;;;;10.68;94.02;98116.02;107643;1268;59699;-72
2022/11/01 08:33:52;;;;;;;;;;;;;;;10.70;93.93;98114.99;107644;1268;59676;-72
2022/11/01 08:36:21;;;;;;;;;;;;;;;10.64;93.76;98115.01;107724;1268;70619;-71
2022/11/01 08:38:50;;;;;;;;;;;;;;;10.71;93.62;98114.60;107604;1268;68744;-71
2022/11/01 08:41:18;;;;;;;;;;;;;;;10.77;93.55;98115.42;107631;1269;70163;-71
2022/11/01 08:43:48;;;;;;;;;;;;;;;10.80;93.69;98112.31;107653;1270;59775;-71
2022/11/01 08:46:16;;;;;;;;;;;;;;;10.85;93.04;98109.91;107637;1270;59681;-71
2022/11/01 08:48:51;;;;;;;;;;;;;;;10.82;93.05;98107.80;107658;1266;72438;-71
2022/11/01 08:51:24;;;;;;;;;;;;;;;10.85;93.51;98110.06;107627;1270;68711;-71
2022/11/01 08:53:54;;;;;;;;;;;;;;;10.90;92.76;98107.64;107678;1269;69963;-71
2022/11/01 08:56:23;;;;;;;;;;;;;;;10.93;92.50;98109.20;107687;1266;59714;-71
2022/11/01 08:58:52;;;;;;;;;;;;;;;10.94;92.66;98107.94;107665;1266;59718;-71
2022/11/01 09:01:25;;;;;;;;;;;;;;;10.96;92.49;98107.61;107640;1268;71416;-71
2022/11/01 09:03:59;;;;;;;;;;;;;;;10.98;93.07;98108.04;107654;1268;69938;-71
2022/11/01 09:06:27;;;;;;;;;;;;;;;11.05;92.80;98104.08;107641;1268;69399;-71
2022/11/01 09:09:03;;;;;;;;;;;;;;;11.10;92.29;98105.31;107674;1269;59767;-71
2022/11/01 09:11:32;;;;;;;;;;;;;;;11.14;92.14;98110.86;107641;1268;59665;-71
2022/11/01 09:14:01;;;;;;;;;;;;;;;11.17;91.99;98109.09;107688;1265;71359;-71
2022/11/01 09:16:31;;;;;;;;;;;;;;;11.25;91.93;98109.59;107679;1264;69956;-71
2022/11/01 09:19:00;;;;;;;;;;;;;;;11.31;91.82;98106.63;107660;1268;69310;-71
2022/11/01 09:21:30;;;;;;;;;;;;;;;11.37;91.35;98108.30;107670;1268;59677;-71
2022/11/01 09:23:59;;;;;;;;;;;;;;;11.34;91.16;98105.53;107673;1264;59709;-71
2022/11/01 09:26:28;;;;;;;;;;;;;;;11.41;91.23;98102.98;107650;1266;71021;-71
2022/11/01 09:28:57;;;;;;;;;;;;;;;11.50;91.27;98102.19;107653;1265;68380;-71
2022/11/01 09:31:27;;;;;;;;;;;;;;;11.52;90.29;98097.73;107631;1265;69355;-71
2022/11/01 09:33:56;;;;;;;;;;;;;;;11.60;90.54;98094.74;107608;1264;59717;-71
2022/11/01 09:36:27;;;;;;;;;;;;;;;11.62;90.43;98096.55;107676;1268;59718;-71
2022/11/01 09:38:56;;;;;;;;;;;;;;;11.64;90.12;98093.21;107683;1266;71475;-71
2022/11/01 09:41:25;;;;;;;;;;;;;;;11.66;89.79;98093.31;107685;1268;69216;-71
2022/11/01 09:43:56;;;;;;;;;;;;;;;11.70;89.53;98093.75;107642;1265;68524;-71
2022/11/01 09:46:27;;;;;;;;;;;;;;;11.70;89.35;98099.33;107629;1265;59665;-71
2022/11/01 09:48:57;;;;;;;;;;;;;;;11.79;89.13;98100.32;107638;1268;59791;-71
2022/11/01 09:51:27;;;;;;;;;;;;;;;11.84;88.67;98098.60;107621;1268;71233;-70
2022/11/01 09:53:57;;;;;;;;;;;;;;;11.93;88.70;98099.23;107687;1268;69301;-72
2022/11/01 09:56:28;;;;;;;;;;;;;;;12.01;88.26;98099.36;107548;1270;69612;-71
2022/11/01 09:59:01;;;;;;;;;;;;;;;12.10;87.88;98091.61;107719;1264;59770;-71
2022/11/01 10:01:44;;;;;;;;;;;;;;;12.18;87.06;98087.34;107742;1266;59681;-71
2022/11/01 10:04:32;;;;;;;;;;;;;;;12.28;86.11;98083.58;107682;1264;71402;-71
2022/11/01 10:07:06;;;;;;;;;;;;;;;12.40;86.56;98080.61;107676;1268;69146;-72
2022/11/01 10:09:53;;;;;;;;;;;;;;;12.37;85.33;98081.90;107680;1264;69118;-70
2022/11/01 10:12:24;;;;;;;;;;;;;;;12.40;84.92;98082.19;107634;1266;59705;-72
2022/11/01 10:15:13;;;;;;;;;;;;;;;12.56;85.93;98085.05;107625;1269;59722;-72
2022/11/01 10:17:52;;;;;;;;;;;;;;;12.74;85.20;98081.03;107700;1264;72047;-72
2022/11/01 10:20:29;;;;;;;;;;;;;;;12.94;83.48;98076.63;107647;1265;70020;-71
2022/11/01 10:22:59;;;;;;;;;;;;;;;13.13;82.48;98077.73;107624;1264;69895;-72
2022/11/01 10:25:31;;;;;;;;;;;;;;;13.27;82.01;98076.16;107667;1265;59725;-71
2022/11/01 10:28:18;;;;;;;;;;;;;;;13.54;82.75;98068.92;107639;1266;59776;-71
2022/11/01 10:30:52;;;;;;;;;;;;;;;13.72;81.04;98065.66;107619;1266;72002;-71
2022/11/01 10:33:24;;;;;;;;;;;;;;;13.81;80.22;98057.31;107680;1268;69885;-71
2022/11/01 10:36:12;;;;;;;;;;;;;;;14.00;79.35;98054.62;107642;1268;69426;-71
2022/11/01 10:38:41;;;;;;;;;;;;;;;14.33;79.81;98049.77;107647;1268;59756;-71
2022/11/01 10:41:41;;;;;;;;;;;;;;;14.62;76.12;98050.66;107645;1269;59737;-71
2022/11/01 10:44:37;;;;;;;;;;;;;;;14.91;74.15;98051.58;107634;1267;71346;-70
2022/11/01 10:47:10;;;;;;;;;;;;;;;14.99;72.88;98048.23;107523;1266;69373;-70
2022/11/01 10:49:44;;;;;;;;;;;;;;;15.30;73.68;98049.22;107640;1264;69311;-70
2022/11/01 10:52:38;;;;;;;;;;;;;;;15.44;71.19;98046.50;107631;1268;59715;-70
2022/11/01 10:55:07;;;;;;;;;;;;;;;15.93;69.13;98040.14;107682;1265;59733;-70
2022/11/01 10:57:43;;;;;;;;;;;;;;;16.42;67.20;98034.19;107679;1268;71107;-70
2022/11/01 11:00:17;;;;;;;;;;;;;;;17.13;66.55;98029.52;107678;1266;69264;-70
2022/11/01 11:03:06;;;;;;;;;;;;;;;18.13;69.33;98026.50;107620;1268;69286;-70
2022/11/01 11:05:35;;;;;;;;;;;;;;;18.58;61.36;98022.27;107571;1268;59779;-71
2022/11/01 11:08:13;;;;;;;;;;;;;;;19.05;58.60;98018.45;107669;1268;59693;-72
2022/11/01 11:10:42;;;;;;;;;;;;;;;19.81;55.85;98017.08;107669;1268;71420;-72
2022/11/01 11:13:13;;;;;;;;;;;;;;;19.95;54.35;98017.99;107669;1266;68401;-72
2022/11/01 11:15:51;;;;;;;;;;;;;;;20.47;52.58;98013.53;107621;1265;69649;-71
2022/11/01 11:18:23;;;;;;;;;;;;;;;21.00;51.40;98008.08;107634;1268;59698;-71
2022/11/01 11:20:54;;;;;;;;;;;;;;;21.80;51.20;98007.67;107603;1268;59760;-72
2022/11/01 11:23:24;;;;;;;;;;;;;;;22.26;48.32;98001.89;107656;1260;72120;-71
2022/11/01 11:25:59;;;;;;;;;;;;;;;22.47;47.64;97997.77;107687;1268;69377;-71
2022/11/01 11:28:30;;;;;;;;;;;;;;;21.95;48.05;97998.85;107648;1268;69421;-71
2022/11/01 11:31:27;;;;;;;;;;;;;;;22.39;47.96;97989.63;107638;1265;59720;-71
2022/11/01 11:33:58;;;;;;;;;;;;;;;22.14;46.95;97986.92;107557;1268;59680;-71
2022/11/01 11:36:29;;;;;;;;;;;;;;;22.53;46.15;97981.70;107620;1264;71671;-72
2022/11/01 11:39:01;;;;;;;;;;;;;;;22.52;46.16;97985.16;107655;1264;68018;-71
2022/11/01 11:41:32;;;;;;;;;;;;;;;23.25;44.91;97983.51;107617;1268;69894;-71
2022/11/01 11:44:02;;;;;;;;;;;;;;;23.59;44.43;97975.69;107717;1268;59771;-71
2022/11/01 11:46:31;;;;;;;;;;;;;;;23.65;44.41;97975.80;107638;1269;59722;-71
2022/11/01 11:49:03;;;;;;;;;;;;;;;23.73;42.60;97976.56;107673;1265;71657;-71
2022/11/01 11:51:36;;;;;;;;;;;;;;;23.30;43.91;97966.70;107646;1266;68756;-71
2022/11/01 11:54:13;;;;;;;;;;;;;;;23.55;44.17;97967.80;107648;1268;69241;-72
2022/11/01 11:56:44;;;;;;;;;;;;;;;23.81;43.09;97972.39;107637;1269;59719;-71
2022/11/01 11:59:28;;;;;;;;;;;;;;;23.80;42.65;97967.88;107614;1266;59791;-72
2022/11/01 12:01:59;;;;;;;;;;;;;;;23.19;43.56;97969.16;107649;1268;71482;-72
2022/11/01 12:04:32;;;;;;;;;;;;;;;23.01;44.09;97965.71;107646;1264;68234;-72
2022/11/01 12:07:01;;;;;;;;;;;;;;;23.53;43.67;97964.77;107661;1264;69269;-72
2022/11/01 12:09:36;;;;;;;;;;;;;;;23.65;42.34;97962.41;107661;1264;59688;-72
2022/11/01 12:12:07;;;;;;;;;;;;;;;23.73;42.86;97955.88;107660;1268;59702;-73
2022/11/01 12:14:36;;;;;;;;;;;;;;;23.82;42.48;97951.09;107647;1265;71496;-72
2022/11/01 12:17:21;;;;;;;;;;;;;;;23.24;43.12;97946.13;107685;1268;69855;-73
2022/11/01 12:19:57;;;;;;;;;;;;;;;23.57;43.46;97942.52;107668;1265;68380;-72
2022/11/01 12:22:32;;;;;;;;;;;;;;;23.29;43.43;97944.00;107644;1268;60000;-71
2022/11/01 12:25:05;;;;;;;;;;;;;;;23.33;43.41;97945.60;107660;1266;59725;-71
2022/11/01 12:27:34;;;;;;;;;;;;;;;23.67;43.23;97944.30;107675;1268;70683;-71
2022/11/01 12:30:07;;;;;;;;;;;;;;;23.93;42.65;97936.92;107686;1264;69182;-72
2022/11/01 12:32:47;;;;;;;;;;;;;;;23.88;41.51;97931.70;107634;1264;69963;-73
2022/11/01 12:35:27;;;;;;;;;;;;;;;23.50;42.74;97926.88;107608;1269;59707;-71
2022/11/01 12:37:56;;;;;;;;;;;;;;;23.89;41.64;97933.33;107646;1264;59790;-71
2022/11/01 12:40:28;;;;;;;;;;;;;;;23.73;42.06;97932.27;107669;1264;72029;-71
2022/11/01 12:43:04;;;;;;;;;;;;;;;23.99;41.81;97929.44;107610;1268;68591;-71
2022/11/01 12:45:42;;;;;;;;;;;;;;;23.93;42.09;97922.71;107654;1264;69963;-71
2022/11/01 12:48:35;;;;;;;;;;;;;;;23.87;42.03;97921.08;107616;1268;59783;-72
2022/11/01 12:51:26;;;;;;;;;;;;;;;22.86;43.56;97920.21;107623;1264;59718;-72
2022/11/01 12:53:54;;;;;;;;;;;;;;;22.85;44.18;97916.18;107797;1268;71627;-72
2022/11/01 12:56:23;;;;;;;;;;;;;;;23.02;43.94;97911.87;108824;1268;69378;-70
2022/11/01 12:58:54;;;;;;;;;;;;;;;22.67;44.15;97910.05;108484;1266;68645;-71
2022/11/01 13:01:36;;;;;;;;;;;;;;;22.05;45.68;97905.34;108146;1268;59777;-70
2022/11/01 13:04:21;;;;;;;;;;;;;;;21.86;46.24;97903.10;107717;1264;59749;-71
2022/11/01 13:07:10;;;;;;;;;;;;;;;22.11;45.54;97900.76;107670;1266;71310;-70
2022/11/01 13:10:01;;;;;;;;;;;;;;;21.28;47.41;97904.07;107661;1266;69274;-71
2022/11/01 13:12:30;;;;;;;;;;;;;;;21.23;47.96;97904.81;107616;1270;69887;-71
2022/11/01 13:15:01;;;;;;;;;;;;;;;21.70;46.62;97902.90;107606;1268;59741;-71